Narsarsuaq

KL  EN  DA
ASIAQ
Weather Now GREENLAND SURVEY
Updated [WGT/WGST] Temperature [°C] Wind [m/s] Air pressure [hPa] Relative humidity [%] Precipitation [mm]
Present Wind chill Speed Max
18.04 00:00-5,60,00,0 ⇓0,71010390,0
17.04 23:00-5,80,00,2 ⇗1,21010510,0
17.04 22:00-4,70,01,1 ⇑2,11009470,0
17.04 21:00-3,8-7,22,2 ⇗2,91009360,0
17.04 20:00-3,3-8,33,9 ⇗5,51008350,0
17.04 19:00-2,4-8,05,1 ⇗6,31008320,0
17.04 18:00-2,3-8,05,4 ⇗7,01007320,0
17.04 17:00-2,2-5,12,1 ⇗4,71007270,0
17.04 16:00-2,8-6,72,8 ⇗4,21007260,0
17.04 15:00-3,1-5,81,8 ⇒4,11006280,0
17.04 14:00-3,4-6,62,1 ⇘3,61006270,0
17.04 13:00-4,4-7,72,1 ⇘3,71006280,0
17.04 12:00-4,9-7,91,8 ⇗4,31005260,0
17.04 11:00-5,7-9,12,0 ⇒3,41005330,0
17.04 10:00-6,4-9,21,6 ⇒3,61005350,0
17.04 09:00-6,9-11,12,4 ⇗4,01004360,0
17.04 08:00-8,2-11,31,6 ⇐2,31004390,0
17.04 07:00-9,0-12,21,6 ⇑2,61003430,0
17.04 06:00-8,7-13,82,9 ⇑5,41002390,0
17.04 05:00-8,5-13,32,7 ⇗4,31001380,0
17.04 04:00-8,7-13,72,8 ⇗4,9999420,0
17.04 03:00-8,6-11,81,6 ⇐3,0999340,0
17.04 02:00-8,5-13,62,9 ⇑5,1999340,0
17.04 01:00-8,2-12,92,6 ⇒3,6998350,0
17.04 00:00-8,6-15,64,9 ⇒7,8998390,0
Position: (61.166667,-45.416667)

[Back]